Time;durP1;ratioP1;P1;durP2;ratioP2;P2;SDS_P1;SDS_P2;PMS_P1;PMS_P2;Temp;Humidity;BMP_temperature;BMP_pressure;BME280_temperature;BME280_humidity;BME280_pressure;Samples;Min_cycle;Max_cycle;Signal;HPM_P1;HPM_P2
2022/05/04 00:01:34;;;;;;;5.13;4.03;;;16.10;87.00;;;;;;5012993;28;20500;-63
2022/05/04 00:04:00;;;;;;;6.75;4.13;;;16.10;87.30;;;;;;5013193;28;20033;-63
2022/05/04 00:06:27;;;;;;;6.25;4.18;;;16.20;86.90;;;;;;5012869;28;20038;-65
2022/05/04 00:08:52;;;;;;;5.47;4.03;;;16.00;87.30;;;;;;5011452;28;20474;-63
2022/05/04 00:11:18;;;;;;;6.60;4.05;;;15.90;87.50;;;;;;5013507;28;20041;-63
2022/05/04 00:13:44;;;;;;;6.18;3.97;;;15.80;87.80;;;;;;5012631;28;20034;-64
2022/05/04 00:16:09;;;;;;;6.00;4.47;;;15.80;88.20;;;;;;5013497;28;20033;-64
2022/05/04 00:18:35;;;;;;;7.25;4.43;;;15.90;88.20;;;;;;5012947;28;20048;-63
2022/05/04 00:21:01;;;;;;;5.88;4.38;;;15.90;87.70;;;;;;5013367;28;20034;-63
2022/05/04 00:23:26;;;;;;;5.32;4.13;;;15.90;87.60;;;;;;5013050;28;20065;-63
2022/05/04 00:25:52;;;;;;;6.25;4.45;;;15.90;87.80;;;;;;5012370;28;20347;-63
2022/05/04 00:28:18;;;;;;;8.73;4.47;;;15.90;87.70;;;;;;5013129;28;20045;-63
2022/05/04 00:30:44;;;;;;;4.60;4.00;;;15.90;87.90;;;;;;5012237;28;20052;-64
2022/05/04 00:33:10;;;;;;;13.32;4.72;;;15.90;88.10;;;;;;5012585;28;20060;-64
2022/05/04 00:35:35;;;;;;;6.22;4.25;;;15.90;88.30;;;;;;5013589;28;20363;-71
2022/05/04 00:38:01;;;;;;;8.50;4.70;;;15.80;88.30;;;;;;5013230;28;20026;-63
2022/05/04 00:40:27;;;;;;;5.10;4.25;;;15.80;88.50;;;;;;5012412;28;20084;-63
2022/05/04 00:42:53;;;;;;;6.05;3.95;;;15.80;88.80;;;;;;5012439;28;20030;-63
2022/05/04 00:45:18;;;;;;;4.68;3.95;;;15.70;88.80;;;;;;5013549;28;20026;-64
2022/05/04 00:47:44;;;;;;;9.38;3.88;;;15.60;89.20;;;;;;5013286;28;20030;-66
2022/05/04 00:50:10;;;;;;;6.43;4.57;;;15.60;89.40;;;;;;5014131;28;20160;-64
2022/05/04 00:52:38;;;;;;;6.03;4.40;;;15.50;89.80;;;;;;5011782;28;20476;-70
2022/05/04 00:55:06;;;;;;;9.07;4.68;;;15.50;89.90;;;;;;5013202;28;20037;-63
2022/05/04 01:00:19;;;;;;;5.50;4.15;;;15.50;90.00;;;;;;5012957;28;20410;-64
2022/05/04 01:02:45;;;;;;;4.93;4.07;;;15.30;90.20;;;;;;5010946;28;20128;-64
2022/05/04 01:05:11;;;;;;;6.13;4.35;;;15.40;90.20;;;;;;5011628;28;20057;-63
2022/05/04 01:07:41;;;;;;;6.68;4.05;;;15.30;90.30;;;;;;5012795;28;20109;-63
2022/05/04 01:10:08;;;;;;;4.20;3.60;;;15.30;90.40;;;;;;5011971;28;20068;-64
2022/05/04 01:12:34;;;;;;;5.47;4.32;;;15.30;90.50;;;;;;5012773;28;20033;-63
2022/05/04 01:15:00;;;;;;;4.97;4.18;;;15.20;90.60;;;;;;5012424;28;20390;-64
2022/05/04 01:17:29;;;;;;;7.68;4.13;;;15.20;90.80;;;;;;5011232;28;20385;-63
2022/05/04 01:19:57;;;;;;;7.63;4.25;;;15.20;90.90;;;;;;5012117;28;20025;-63
2022/05/04 01:22:24;;;;;;;6.68;4.72;;;15.10;91.00;;;;;;5016187;28;20030;-64
2022/05/04 01:24:50;;;;;;;7.82;4.78;;;15.10;91.20;;;;;;5015774;28;20029;-64
2022/05/04 01:27:15;;;;;;;5.97;4.78;;;15.10;91.20;;;;;;5016239;28;20473;-63
2022/05/04 01:29:41;;;;;;;6.03;4.43;;;15.00;91.50;;;;;;5015791;28;20125;-64
2022/05/04 01:32:07;;;;;;;7.05;4.55;;;14.90;91.60;;;;;;5016203;28;20068;-63
2022/05/04 01:34:33;;;;;;;14.85;5.50;;;14.90;91.70;;;;;;5016085;28;20022;-64
2022/05/04 01:36:58;;;;;;;8.48;4.57;;;14.90;91.80;;;;;;5015736;28;20277;-64
2022/05/04 01:39:24;;;;;;;11.88;5.32;;;15.00;91.90;;;;;;5014925;28;20041;-64
2022/05/04 01:42:13;;;;;;;7.35;4.70;;;14.80;92.10;;;;;;5014451;28;20041;-63
2022/05/04 01:44:40;;;;;;;6.35;4.60;;;14.80;92.20;;;;;;5015909;28;20029;-70
2022/05/04 01:47:07;;;;;;;10.93;4.93;;;14.80;92.20;;;;;;5014882;28;20029;-63
2022/05/04 01:49:33;;;;;;;6.93;4.80;;;14.80;92.40;;;;;;5015930;28;20030;-63
2022/05/04 01:51:59;;;;;;;6.15;5.53;;;14.90;92.40;;;;;;5015422;28;20033;-64
2022/05/04 01:54:26;;;;;;;6.22;4.57;;;14.80;92.40;;;;;;5016314;28;20026;-68
2022/05/04 01:56:51;;;;;;;5.85;4.82;;;14.70;92.60;;;;;;5015351;28;20100;-64
2022/05/04 01:59:17;;;;;;;5.50;4.90;;;14.80;92.60;;;;;;5014675;28;20034;-64
2022/05/04 02:01:43;;;;;;;5.93;5.32;;;14.70;92.60;;;;;;5015250;28;20069;-64
2022/05/04 02:04:09;;;;;;;5.13;4.63;;;14.80;92.70;;;;;;5014377;28;20061;-62
2022/05/04 02:06:36;;;;;;;8.23;4.63;;;14.80;92.80;;;;;;5015512;28;20045;-64
2022/05/04 02:09:03;;;;;;;7.00;5.22;;;14.70;92.80;;;;;;5015210;28;20034;-64
2022/05/04 02:11:32;;;;;;;5.60;4.80;;;14.70;93.00;;;;;;4998195;28;20038;-63
2022/05/04 02:14:00;;;;;;;8.25;4.80;;;14.70;93.00;;;;;;5015031;28;20033;-64
2022/05/04 02:16:26;;;;;;;5.97;4.88;;;14.70;93.00;;;;;;5014093;28;20051;-64
2022/05/04 02:18:52;;;;;;;11.32;6.10;;;14.70;93.00;;;;;;5014945;28;20061;-64
2022/05/04 02:21:18;;;;;;;8.00;5.80;;;14.70;93.20;;;;;;5015767;28;20028;-64
2022/05/04 02:23:43;;;;;;;6.20;5.25;;;14.50;93.40;;;;;;5014581;28;20037;-64
2022/05/04 02:26:09;;;;;;;5.90;5.30;;;14.50;93.50;;;;;;5015083;28;20529;-64
2022/05/04 02:28:35;;;;;;;7.28;5.32;;;14.50;93.70;;;;;;5014998;28;20038;-69
2022/05/04 02:31:00;;;;;;;5.95;5.15;;;14.50;93.80;;;;;;5015769;28;20029;-64
2022/05/04 02:33:26;;;;;;;13.13;5.55;;;14.40;94.10;;;;;;5014087;28;20054;-67
2022/05/04 02:38:36;;;;;;;7.38;5.07;;;14.40;94.10;;;;;;5015322;28;20506;-70
2022/05/04 02:41:02;;;;;;;6.65;5.80;;;14.40;94.20;;;;;;5015312;28;20238;-64
2022/05/04 02:43:28;;;;;;;7.82;5.60;;;14.40;94.40;;;;;;5014381;28;20033;-65
2022/05/04 02:45:54;;;;;;;10.50;5.35;;;14.40;94.50;;;;;;5014829;28;20522;-68
2022/05/04 02:48:20;;;;;;;9.10;6.07;;;14.40;94.50;;;;;;5014970;28;20038;-64
2022/05/04 02:50:46;;;;;;;7.32;5.85;;;14.30;94.80;;;;;;5014664;28;20033;-64
2022/05/04 02:53:11;;;;;;;6.07;5.47;;;14.30;94.90;;;;;;5013873;28;20022;-63
2022/05/04 02:55:37;;;;;;;7.38;5.63;;;14.30;95.00;;;;;;5014925;28;20061;-63
2022/05/04 02:58:03;;;;;;;5.88;5.28;;;14.30;95.00;;;;;;5014543;28;20213;-63
2022/05/04 03:00:29;;;;;;;6.70;5.82;;;14.20;95.10;;;;;;5013532;28;20037;-67
2022/05/04 03:02:54;;;;;;;7.70;5.47;;;14.20;95.20;;;;;;5013542;28;20026;-67
2022/05/04 03:05:21;;;;;;;9.10;5.53;;;14.20;95.40;;;;;;5015963;28;20518;-63
2022/05/04 03:07:47;;;;;;;6.35;5.13;;;14.30;95.30;;;;;;5015164;28;20034;-65
2022/05/04 03:10:13;;;;;;;6.60;5.75;;;14.20;95.50;;;;;;5015059;28;20026;-64
2022/05/04 03:12:40;;;;;;;13.05;6.00;;;14.20;95.70;;;;;;5014268;28;20450;-63
2022/05/04 03:15:07;;;;;;;8.27;6.55;;;14.20;95.60;;;;;;5014142;28;20029;-64
2022/05/04 03:17:33;;;;;;;7.82;6.07;;;14.20;95.80;;;;;;5014782;28;20482;-63
2022/05/04 03:19:58;;;;;;;11.55;5.72;;;14.20;95.90;;;;;;5013878;28;20479;-63
2022/05/04 03:22:25;;;;;;;7.28;5.97;;;14.10;96.20;;;;;;5013303;28;20076;-64
2022/05/04 03:24:51;;;;;;;19.80;6.00;;;14.00;96.30;;;;;;5013575;28;20030;-63
2022/05/04 03:27:17;;;;;;;7.10;6.20;;;14.10;96.20;;;;;;5014179;28;20033;-64
2022/05/04 03:29:43;;;;;;;7.78;6.00;;;14.20;96.20;;;;;;5013962;28;20427;-68
2022/05/04 03:32:09;;;;;;;8.32;5.93;;;14.20;96.30;;;;;;5012247;28;20057;-65
2022/05/04 03:34:35;;;;;;;10.43;6.53;;;14.20;96.40;;;;;;5012962;28;20022;-63
2022/05/04 03:37:00;;;;;;;7.97;6.63;;;14.30;96.40;;;;;;5012426;28;20038;-67
2022/05/04 03:39:27;;;;;;;9.00;6.30;;;14.20;96.50;;;;;;5013343;28;20036;-64
2022/05/04 03:41:53;;;;;;;11.38;7.20;;;14.20;96.40;;;;;;5012267;28;20383;-63
2022/05/04 03:44:19;;;;;;;10.20;6.10;;;14.30;96.50;;;;;;5012328;28;20025;-64
2022/05/04 03:46:45;;;;;;;13.10;6.13;;;14.10;96.80;;;;;;5014279;28;20061;-63
2022/05/04 03:49:12;;;;;;;9.57;6.10;;;14.10;96.90;;;;;;5011884;28;20042;-64
2022/05/04 03:51:38;;;;;;;11.00;6.53;;;14.00;97.20;;;;;;5012461;28;20026;-64
2022/05/04 03:54:04;;;;;;;8.80;6.40;;;14.00;97.40;;;;;;5011910;28;20033;-64
2022/05/04 03:56:29;;;;;;;7.70;5.90;;;13.90;97.70;;;;;;5013446;28;20034;-63
2022/05/04 03:58:55;;;;;;;9.30;6.63;;;14.00;97.60;;;;;;5013112;28;20034;-63
2022/05/04 04:01:22;;;;;;;9.02;6.13;;;14.10;97.30;;;;;;5013756;28;20034;-64
2022/05/04 04:03:48;;;;;;;10.45;6.43;;;14.10;97.40;;;;;;5013206;28;20031;-73
2022/05/04 04:06:13;;;;;;;8.55;6.40;;;14.00;97.50;;;;;;5013278;28;20034;-65
2022/05/04 04:08:39;;;;;;;9.45;6.32;;;14.10;97.60;;;;;;5013091;28;20037;-64
2022/05/04 04:11:05;;;;;;;9.75;6.60;;;14.10;97.70;;;;;;5011735;28;20026;-63
2022/05/04 04:13:31;;;;;;;11.77;6.97;;;14.00;98.80;;;;;;5011968;28;20022;-63
2022/05/04 04:15:57;;;;;;;9.05;6.80;;;14.00;98.80;;;;;;5012891;28;20061;-67
2022/05/04 04:18:25;;;;;;;11.93;6.25;;;14.00;98.40;;;;;;5012240;28;20476;-65
2022/05/04 04:23:36;;;;;;;11.18;7.20;;;14.10;98.10;;;;;;5012324;28;20032;-64
2022/05/04 04:26:03;;;;;;;9.80;6.53;;;14.10;98.10;;;;;;5013246;28;20096;-65
2022/05/04 04:28:29;;;;;;;12.65;6.78;;;14.10;98.30;;;;;;5013401;28;20041;-63
2022/05/04 04:30:55;;;;;;;6.85;5.82;;;14.10;98.10;;;;;;5011383;28;20033;-63
2022/05/04 04:33:26;;;;;;;15.98;6.97;;;14.10;98.20;;;;;;4995629;28;20049;-63
2022/05/04 04:35:52;;;;;;;12.77;7.05;;;14.00;98.50;;;;;;5011519;28;20033;-64
2022/05/04 04:38:17;;;;;;;12.63;7.22;;;14.10;98.50;;;;;;5011985;28;20186;-63
2022/05/04 04:40:43;;;;;;;10.48;6.15;;;14.10;98.40;;;;;;5013312;28;20022;-63
2022/05/04 04:43:09;;;;;;;8.55;5.75;;;14.10;98.30;;;;;;5012634;28;20029;-63
2022/05/04 04:45:35;;;;;;;9.73;6.88;;;14.10;98.40;;;;;;5012968;28;20526;-63
2022/05/04 04:48:00;;;;;;;11.93;7.68;;;14.10;98.70;;;;;;5012094;28;20022;-64
2022/05/04 04:50:26;;;;;;;10.55;6.47;;;14.00;98.70;;;;;;5011821;28;20080;-64
2022/05/04 04:52:51;;;;;;;10.65;6.55;;;14.20;98.40;;;;;;5012842;28;20455;-65
2022/05/04 04:55:17;;;;;;;12.75;7.20;;;14.30;98.30;;;;;;5011999;28;20026;-64
2022/05/04 04:57:43;;;;;;;12.75;5.85;;;14.40;98.10;;;;;;5015729;28;20076;-64
2022/05/04 05:00:09;;;;;;;12.50;7.13;;;14.40;98.10;;;;;;5016441;28;20038;-64
2022/05/04 05:02:35;;;;;;;15.48;7.30;;;14.40;98.10;;;;;;5015444;28;20395;-63
2022/05/04 05:05:04;;;;;;;10.15;6.68;;;14.30;98.20;;;;;;5016464;28;20033;-65
2022/05/04 05:07:30;;;;;;;19.23;7.40;;;14.50;98.10;;;;;;5015749;28;20088;-66
2022/05/04 05:09:56;;;;;;;13.55;6.97;;;14.40;98.30;;;;;;5016145;28;20070;-66
2022/05/04 05:12:22;;;;;;;10.50;6.72;;;14.40;98.20;;;;;;5016764;28;20447;-66
2022/05/04 05:17:33;;;;;;;10.45;6.53;;;14.50;98.30;;;;;;5017031;28;20502;-64
2022/05/04 05:20:00;;;;;;;10.35;6.88;;;14.60;98.10;;;;;;5016336;28;20080;-64
2022/05/04 05:22:25;;;;;;;10.30;6.68;;;14.70;98.00;;;;;;5015897;28;20486;-66
2022/05/04 05:24:55;;;;;;;12.48;7.30;;;14.70;98.00;;;;;;5015776;28;20026;-67
2022/05/04 05:27:22;;;;;;;9.05;6.78;;;14.60;98.30;;;;;;5016734;28;20026;-66
2022/05/04 05:29:48;;;;;;;14.30;6.72;;;14.70;98.00;;;;;;5014836;28;20030;-64
2022/05/04 05:32:13;;;;;;;13.13;5.93;;;14.70;98.10;;;;;;5014364;28;20057;-65
2022/05/04 05:34:39;;;;;;;8.65;6.68;;;14.80;98.00;;;;;;5016333;28;20057;-64
2022/05/04 05:37:05;;;;;;;11.45;6.43;;;14.70;98.10;;;;;;5015528;28;20057;-64
2022/05/04 05:39:30;;;;;;;11.55;7.35;;;14.60;98.30;;;;;;5014973;28;20030;-64
2022/05/04 05:41:56;;;;;;;12.63;6.63;;;14.70;98.10;;;;;;5014499;28;20037;-65
2022/05/04 05:44:22;;;;;;;16.48;6.60;;;14.70;97.90;;;;;;5015109;28;20033;-70
2022/05/04 05:46:48;;;;;;;15.52;7.05;;;14.70;97.80;;;;;;5015067;28;20030;-69
2022/05/04 05:49:13;;;;;;;9.35;6.90;;;14.80;97.80;;;;;;5014416;28;20201;-65
2022/05/04 05:51:39;;;;;;;11.43;6.78;;;14.80;97.90;;;;;;5014832;28;20029;-63
2022/05/04 05:54:04;;;;;;;11.43;6.18;;;14.80;97.90;;;;;;5010322;28;20399;-65
2022/05/04 05:56:30;;;;;;;30.08;6.60;;;14.70;98.00;;;;;;5013547;28;20033;-67
2022/05/04 05:58:56;;;;;;;7.45;6.22;;;14.70;98.10;;;;;;5010022;28;20043;-71
2022/05/04 06:01:21;;;;;;;10.80;5.97;;;14.70;98.30;;;;;;4993122;28;20078;-68
2022/05/04 06:03:49;;;;;;;7.78;5.72;;;14.80;98.40;;;;;;5009234;28;20037;-68
2022/05/04 06:06:14;;;;;;;8.13;6.32;;;14.80;98.30;;;;;;5009653;28;20734;-69
2022/05/04 06:08:40;;;;;;;10.98;6.25;;;14.90;98.20;;;;;;5007769;28;20182;-68
2022/05/04 06:11:06;;;;;;;11.57;6.57;;;14.90;98.20;;;;;;5016457;28;20037;-75
2022/05/04 06:13:31;;;;;;;17.35;6.00;;;15.30;99.90;;;;;;5017991;28;20486;-76
2022/05/04 06:15:57;;;;;;;10.70;6.90;;;15.50;99.50;;;;;;5028053;28;20088;-74
2022/05/04 06:18:23;;;;;;;7.07;6.00;;;15.60;98.20;;;;;;5026987;28;20026;-75
2022/05/04 06:20:48;;;;;;;38.38;11.95;;;15.80;98.10;;;;;;5021606;28;20028;-68
2022/05/04 06:23:14;;;;;;;13.43;6.50;;;15.80;97.00;;;;;;5014812;28;20414;-65
2022/05/04 06:25:42;;;;;;;12.50;6.22;;;15.60;97.20;;;;;;5014507;28;20030;-65
2022/05/04 06:28:07;;;;;;;8.98;6.32;;;15.60;97.40;;;;;;5014948;28;20034;-67
2022/05/04 06:36:01;;;;;;;12.25;6.00;;;15.50;97.60;;;;;;4996002;28;20494;-67
2022/05/04 06:38:27;;;;;;;11.27;5.85;;;15.50;97.60;;;;;;5010204;28;20030;-66
2022/05/04 06:40:54;;;;;;;18.27;6.80;;;15.40;97.50;;;;;;5013560;28;20461;-64
2022/05/04 06:43:20;;;;;;;10.95;6.07;;;15.40;97.90;;;;;;5015055;28;20114;-74
2022/05/04 06:45:45;;;;;;;12.43;6.35;;;15.50;97.80;;;;;;5014267;28;20061;-68
2022/05/04 06:48:11;;;;;;;11.07;6.40;;;15.60;97.50;;;;;;5023981;28;20034;-68
2022/05/04 06:50:37;;;;;;;6.20;5.50;;;15.60;97.70;;;;;;5013330;28;20037;-68
2022/05/04 06:53:03;;;;;;;13.27;5.63;;;15.70;97.40;;;;;;5010853;28;20026;-69
2022/05/04 06:55:29;;;;;;;8.65;5.90;;;15.70;97.30;;;;;;5012944;28;20037;-66
2022/05/04 06:57:54;;;;;;;13.88;5.97;;;15.80;97.30;;;;;;5012797;28;20034;-66
2022/05/04 07:00:20;;;;;;;8.52;5.57;;;15.70;96.80;;;;;;5009605;28;20481;-67
2022/05/04 07:02:46;;;;;;;10.10;6.38;;;15.70;96.70;;;;;;5006062;28;20042;-72
2022/05/04 07:05:11;;;;;;;7.93;6.20;;;15.70;96.70;;;;;;5002043;28;20026;-70
2022/05/04 07:07:37;;;;;;;8.90;5.95;;;15.70;96.90;;;;;;5013930;28;20378;-66
2022/05/04 07:10:03;;;;;;;9.45;6.28;;;15.70;96.90;;;;;;5014305;28;20041;-69
2022/05/04 07:12:29;;;;;;;7.40;5.72;;;15.80;96.80;;;;;;5013798;28;20085;-69
2022/05/04 07:14:56;;;;;;;10.00;6.65;;;16.00;96.80;;;;;;5014986;28;20490;-70
2022/05/04 07:17:25;;;;;;;12.90;6.25;;;15.90;96.80;;;;;;5014615;28;20512;-74
2022/05/04 07:19:52;;;;;;;10.38;6.43;;;16.10;97.10;;;;;;5008323;28;20034;-68
2022/05/04 07:22:18;;;;;;;8.93;5.95;;;16.20;96.90;;;;;;4997762;28;20117;-67
2022/05/04 07:24:43;;;;;;;14.30;6.82;;;16.40;96.80;;;;;;5010326;28;20113;-68
2022/05/04 07:27:09;;;;;;;13.07;6.10;;;16.40;96.80;;;;;;5013212;28;20076;-68
2022/05/04 07:29:35;;;;;;;8.85;5.93;;;16.70;96.80;;;;;;5012725;28;20467;-68
2022/05/04 07:32:01;;;;;;;7.32;5.45;;;16.80;96.40;;;;;;5012417;28;20054;-70
2022/05/04 07:34:27;;;;;;;11.57;6.18;;;16.70;96.60;;;;;;5012309;28;20108;-72
2022/05/04 07:36:52;;;;;;;10.68;5.90;;;16.60;96.70;;;;;;5014762;28;20119;-68
2022/05/04 07:42:21;;;;;;;7.10;6.22;;;16.70;97.50;;;;;;5014339;28;20037;-68
2022/05/04 07:44:47;;;;;;;11.70;5.45;;;17.00;96.80;;;;;;5014080;28;20022;-66
2022/05/04 07:47:13;;;;;;;12.43;6.18;;;16.90;96.60;;;;;;5013015;28;20038;-66
2022/05/04 07:49:39;;;;;;;14.07;6.22;;;16.90;95.70;;;;;;5012565;28;20036;-65
2022/05/04 07:52:05;;;;;;;11.07;5.97;;;16.90;95.70;;;;;;5013156;28;20017;-65
2022/05/04 07:54:31;;;;;;;8.65;5.70;;;16.90;95.40;;;;;;5015315;28;20443;-69
2022/05/04 07:56:57;;;;;;;15.02;6.43;;;16.90;95.40;;;;;;5016496;28;20036;-64
2022/05/04 07:59:22;;;;;;;11.35;6.28;;;16.90;95.60;;;;;;5014856;28;20105;-65
2022/05/04 08:04:34;;;;;;;11.45;5.60;;;17.80;99.90;;;;;;5013844;28;20412;-71
2022/05/04 08:07:00;;;;;;;10.73;6.10;;;18.40;99.90;;;;;;5013268;28;20049;-68
2022/05/04 08:09:26;;;;;;;14.07;6.13;;;19.00;99.60;;;;;;5011985;28;20030;-71
2022/05/04 08:11:52;;;;;;;10.95;5.55;;;19.40;96.90;;;;;;5012396;28;20032;-69
2022/05/04 08:14:18;;;;;;;6.03;4.72;;;19.50;98.50;;;;;;5011479;28;20030;-65
2022/05/04 08:16:44;;;;;;;12.02;5.38;;;19.70;93.40;;;;;;5010612;28;20081;-66
2022/05/04 08:19:10;;;;;;;11.63;4.97;;;20.00;92.30;;;;;;5010754;28;20040;-66
2022/05/04 08:21:39;;;;;;;11.18;4.65;;;20.20;91.40;;;;;;5010520;28;20404;-66
2022/05/04 08:24:05;;;;;;;9.18;4.75;;;20.70;91.50;;;;;;5027797;28;20041;-66
2022/05/04 08:26:30;;;;;;;8.60;5.18;;;20.70;90.90;;;;;;4995991;28;20048;-66
2022/05/04 08:28:56;;;;;;;9.60;6.22;;;20.70;90.10;;;;;;5027691;28;20080;-66
2022/05/04 08:31:22;;;;;;;6.70;5.20;;;20.20;90.10;;;;;;5009716;28;20074;-67
2022/05/04 08:33:50;;;;;;;10.38;5.55;;;19.70;90.90;;;;;;5010754;28;20042;-68
2022/05/04 08:36:17;;;;;;;13.82;5.55;;;20.20;90.70;;;;;;5028266;28;20144;-66
2022/05/04 08:38:43;;;;;;;9.45;6.07;;;20.50;90.30;;;;;;5029014;28;20043;-66
2022/05/04 08:41:09;;;;;;;6.15;5.38;;;20.90;90.10;;;;;;5027962;28;20430;-66
2022/05/04 08:43:35;;;;;;;14.95;5.30;;;21.30;88.70;;;;;;5028475;28;20452;-66
2022/05/04 08:46:03;;;;;;;8.73;4.68;;;20.50;89.20;;;;;;5011958;28;20410;-65
2022/05/04 08:48:32;;;;;;;7.10;5.45;;;20.90;89.80;;;;;;5010949;28;20059;-66
2022/05/04 08:51:03;;;;;;;8.05;6.00;;;20.80;89.80;;;;;;5011707;28;20025;-66
2022/05/04 08:53:30;;;;;;;8.18;5.88;;;20.80;90.00;;;;;;5028210;28;20029;-65
2022/05/04 08:55:56;;;;;;;7.68;5.43;;;20.30;90.30;;;;;;4996406;28;20039;-66
2022/05/04 08:58:22;;;;;;;8.77;4.85;;;20.50;90.40;;;;;;4991056;28;20116;-66
2022/05/04 09:00:47;;;;;;;7.88;5.75;;;21.40;89.30;;;;;;4989895;28;20034;-66
2022/05/04 09:03:13;;;;;;;8.57;6.03;;;21.40;88.00;;;;;;4990494;28;20030;-67
2022/05/04 09:05:41;;;;;;;11.35;6.10;;;21.20;88.20;;;;;;4989983;28;20030;-66
2022/05/04 09:08:08;;;;;;;6.47;5.22;;;22.00;88.60;;;;;;4990838;28;20384;-66
2022/05/04 09:10:38;;;;;;;6.88;5.18;;;22.80;86.40;;;;;;4989897;28;20030;-65
2022/05/04 09:13:05;;;;;;;9.35;4.60;;;23.10;85.00;;;;;;4991420;28;20045;-66
2022/05/04 09:15:33;;;;;;;9.90;4.95;;;23.30;84.50;;;;;;4989684;28;20038;-64
2022/05/04 09:18:07;;;;;;;11.55;4.75;;;23.50;84.00;;;;;;4990486;28;20499;-65
2022/05/04 09:20:47;;;;;;;9.18;5.00;;;24.00;83.60;;;;;;4989594;28;20177;-65
2022/05/04 09:23:18;;;;;;;6.88;5.50;;;24.20;82.50;;;;;;4989317;28;20022;-64
2022/05/04 09:25:47;;;;;;;9.68;5.85;;;24.00;80.20;;;;;;4989320;28;20031;-65
2022/05/04 09:28:14;;;;;;;9.57;4.90;;;23.60;82.00;;;;;;4989225;28;20435;-64
2022/05/04 09:30:49;;;;;;;12.20;5.40;;;23.20;82.20;;;;;;4990793;28;20515;-64
2022/05/04 09:33:36;;;;;;;7.47;5.00;;;22.80;82.20;;;;;;4988510;28;20047;-66
2022/05/04 09:36:05;;;;;;;11.75;4.80;;;22.40;82.30;;;;;;4990759;28;20030;-65
2022/05/04 09:46:55;;;;;;;6.93;5.55;;;22.00;84.80;;;;;;4994463;28;20033;-65
2022/05/04 09:49:27;;;;;;;6.15;4.78;;;22.50;84.00;;;;;;4992218;28;20034;-65
2022/05/04 09:51:54;;;;;;;10.10;6.13;;;23.10;83.60;;;;;;4992656;28;20026;-65
2022/05/04 09:54:37;;;;;;;13.20;6.30;;;23.00;82.50;;;;;;4992303;28;20060;-64
2022/05/04 09:57:04;;;;;;;9.77;5.88;;;22.80;83.60;;;;;;4994148;28;20448;-65
2022/05/04 09:59:32;;;;;;;6.80;5.53;;;23.00;82.90;;;;;;4993358;28;20038;-65
2022/05/04 10:02:00;;;;;;;10.57;5.60;;;23.30;83.30;;;;;;4992491;28;20123;-65
2022/05/04 10:04:26;;;;;;;11.63;5.15;;;23.80;81.50;;;;;;4992551;28;20423;-64
2022/05/04 10:06:53;;;;;;;7.50;5.38;;;24.40;81.40;;;;;;4993577;28;20052;-67
2022/05/04 10:09:21;;;;;;;8.68;5.22;;;24.70;79.80;;;;;;4993824;28;20030;-65
2022/05/04 10:11:47;;;;;;;16.05;5.93;;;24.90;79.80;;;;;;4992718;28;20026;-65
2022/05/04 10:14:15;;;;;;;6.57;5.32;;;24.50;78.10;;;;;;4991816;28;20042;-65
2022/05/04 10:17:06;;;;;;;7.55;4.43;;;24.60;79.00;;;;;;4993769;28;20368;-66
2022/05/04 10:19:47;;;;;;;8.05;4.40;;;25.50;78.70;;;;;;4991896;28;20089;-66
2022/05/04 10:22:17;;;;;;;6.63;4.63;;;25.80;76.30;;;;;;4992112;28;20038;-67
2022/05/04 10:24:45;;;;;;;7.68;5.53;;;25.80;75.20;;;;;;4992736;28;20040;-65
2022/05/04 10:27:19;;;;;;;7.15;5.82;;;25.40;75.30;;;;;;4993196;28;20030;-67
2022/05/04 10:32:45;;;;;;;7.35;4.80;;;24.00;78.00;;;;;;4992762;28;20428;-65
2022/05/04 10:35:24;;;;;;;6.78;4.25;;;24.30;76.00;;;;;;4993052;28;20063;-65
2022/05/04 10:37:59;;;;;;;13.43;5.43;;;24.60;77.40;;;;;;4992161;28;20026;-65
2022/05/04 10:40:31;;;;;;;4.72;4.32;;;25.00;76.20;;;;;;4992958;28;20404;-65
2022/05/04 10:43:06;;;;;;;10.95;5.60;;;25.80;75.70;;;;;;4993594;28;20027;-65
2022/05/04 10:45:37;;;;;;;10.93;5.50;;;26.10;74.30;;;;;;4992315;28;20064;-66
2022/05/04 10:48:18;;;;;;;7.05;5.10;;;26.40;73.40;;;;;;4993001;28;20106;-66
2022/05/04 10:50:48;;;;;;;5.75;5.03;;;26.20;73.80;;;;;;4993363;28;20035;-65
2022/05/04 10:53:21;;;;;;;5.07;4.55;;;26.30;71.80;;;;;;4990877;28;20038;-65
2022/05/04 10:56:08;;;;;;;7.90;4.95;;;26.40;72.60;;;;;;4991887;28;20022;-65
2022/05/04 10:58:45;;;;;;;9.20;5.72;;;26.40;72.50;;;;;;4991237;28;20030;-65
2022/05/04 11:01:22;;;;;;;8.38;4.82;;;25.70;72.70;;;;;;4991435;28;20059;-66
2022/05/04 11:04:04;;;;;;;7.47;4.72;;;26.70;71.70;;;;;;4991695;28;20089;-65
2022/05/04 11:06:39;;;;;;;6.55;5.30;;;27.20;70.70;;;;;;4997727;28;20044;-65
2022/05/04 11:09:16;;;;;;;6.13;4.97;;;26.70;69.70;;;;;;5010914;28;20448;-66
2022/05/04 11:11:45;;;;;;;8.25;5.10;;;25.50;73.90;;;;;;5010406;28;20489;-57
2022/05/04 11:14:13;;;;;;;5.03;4.38;;;26.20;75.80;;;;;;5009706;28;20109;-56
2022/05/04 11:16:40;;;;;;;6.72;4.88;;;26.50;78.60;;;;;;5010426;28;20117;-58
2022/05/04 11:19:06;;;;;;;6.53;3.97;;;26.90;74.70;;;;;;5012353;28;20109;-58
2022/05/04 11:21:33;;;;;;;10.02;4.60;;;27.20;76.80;;;;;;5010106;28;20088;-57
2022/05/04 11:24:02;;;;;;;4.15;3.72;;;27.30;73.30;;;;;;5010481;28;20471;-58
2022/05/04 11:26:42;;;;;;;6.32;3.53;;;27.70;75.70;;;;;;5006812;28;20030;-57
2022/05/04 11:29:15;;;;;;;4.65;3.28;;;28.00;74.40;;;;;;5007623;28;20037;-58
2022/05/04 11:31:54;;;;;;;5.65;3.70;;;28.10;73.80;;;;;;5008251;28;20034;-57
2022/05/04 11:34:22;;;;;;;11.88;4.50;;;27.90;73.10;;;;;;5004424;28;20033;-57
2022/05/04 11:36:50;;;;;;;8.52;4.28;;;28.00;73.80;;;;;;5009038;28;20038;-56
2022/05/04 11:39:18;;;;;;;8.63;4.57;;;27.80;73.00;;;;;;5006646;28;20030;-56
2022/05/04 11:41:48;;;;;;;5.45;4.13;;;27.60;72.90;;;;;;5010558;28;20121;-57
2022/05/04 11:44:15;;;;;;;4.93;3.80;;;27.20;71.00;;;;;;5009067;28;20121;-57
2022/05/04 11:46:44;;;;;;;5.40;4.10;;;26.90;74.70;;;;;;5007285;28;20030;-58
2022/05/04 11:49:11;;;;;;;5.57;4.75;;;26.80;72.80;;;;;;5002905;28;20072;-58
2022/05/04 11:51:38;;;;;;;4.30;3.92;;;26.60;73.50;;;;;;5009791;28;20510;-57
2022/05/04 11:54:04;;;;;;;9.07;4.60;;;26.50;72.80;;;;;;4997400;28;20042;-57
2022/05/04 11:56:30;;;;;;;5.45;4.13;;;26.30;72.00;;;;;;5009294;28;20179;-57
2022/05/04 11:58:56;;;;;;;4.90;4.28;;;26.00;73.20;;;;;;5011669;28;20037;-58
2022/05/04 12:01:22;;;;;;;5.32;4.22;;;25.60;74.40;;;;;;5011059;28;20482;-58
2022/05/04 12:03:48;;;;;;;13.05;4.93;;;25.40;74.40;;;;;;4993283;28;20127;-56
2022/05/04 12:06:14;;;;;;;4.90;3.55;;;25.60;76.40;;;;;;5009424;28;20026;-58
2022/05/04 12:08:41;;;;;;;5.20;4.32;;;26.00;74.30;;;;;;5009301;28;20034;-58
2022/05/04 12:11:08;;;;;;;4.90;3.97;;;26.00;73.20;;;;;;5011211;28;20056;-58
2022/05/04 12:13:37;;;;;;;6.00;3.55;;;25.90;73.80;;;;;;5009553;28;20056;-58
2022/05/04 12:16:04;;;;;;;5.70;4.50;;;25.80;74.40;;;;;;5011258;28;20034;-57
2022/05/04 12:18:32;;;;;;;5.18;4.15;;;25.70;74.70;;;;;;5009568;28;20034;-56
2022/05/04 12:21:08;;;;;;;6.25;4.68;;;25.60;74.80;;;;;;5000631;28;20065;-58
2022/05/04 12:23:41;;;;;;;7.07;5.43;;;25.40;74.10;;;;;;4995104;28;20476;-56
2022/05/04 12:26:10;;;;;;;7.22;4.68;;;25.20;74.60;;;;;;5005341;28;20049;-57
2022/05/04 12:28:36;;;;;;;4.35;3.95;;;25.20;76.20;;;;;;4997086;28;20033;-57
2022/05/04 12:33:50;;;;;;;9.77;4.80;;;25.50;76.30;;;;;;5004412;28;20408;-57
2022/05/04 12:36:18;;;;;;;6.57;4.90;;;25.30;75.90;;;;;;5008828;28;20196;-58
2022/05/04 12:38:49;;;;;;;9.52;4.90;;;25.10;76.50;;;;;;5009183;28;20113;-58
2022/05/04 12:41:20;;;;;;;5.88;4.28;;;24.90;76.70;;;;;;4991885;28;20030;-57
2022/05/04 12:43:47;;;;;;;8.98;5.22;;;24.80;78.00;;;;;;5006216;28;20033;-57
2022/05/04 12:46:18;;;;;;;7.32;4.90;;;24.50;77.40;;;;;;5008929;28;20459;-57
2022/05/04 12:48:46;;;;;;;5.22;4.30;;;24.40;76.90;;;;;;5010707;28;20506;-56
2022/05/04 12:51:16;;;;;;;11.25;5.45;;;24.60;78.10;;;;;;5010377;28;20042;-57
2022/05/04 12:53:44;;;;;;;10.88;5.07;;;24.80;77.10;;;;;;5007980;28;20435;-59
2022/05/04 12:58:54;;;;;;;14.50;5.05;;;25.20;75.50;;;;;;5006647;28;20032;-57
2022/05/04 13:01:24;;;;;;;6.95;4.43;;;25.60;75.90;;;;;;5006423;28;20033;-55
2022/05/04 13:03:51;;;;;;;7.73;4.13;;;25.80;74.90;;;;;;5008616;28;20491;-57
2022/05/04 13:06:17;;;;;;;4.65;3.65;;;26.10;75.50;;;;;;5007553;28;20289;-58
2022/05/04 13:08:43;;;;;;;7.03;4.10;;;26.30;75.50;;;;;;5009659;28;20041;-57
2022/05/04 13:11:09;;;;;;;9.52;4.07;;;26.40;75.10;;;;;;5010055;28;20065;-58
2022/05/04 13:13:35;;;;;;;6.60;4.40;;;26.50;75.00;;;;;;5009004;28;20434;-66
2022/05/04 13:16:00;;;;;;;7.22;4.15;;;26.50;72.80;;;;;;5004803;28;20138;-65
2022/05/04 13:18:26;;;;;;;5.07;4.15;;;26.60;72.80;;;;;;4991972;28;20113;-65
2022/05/04 13:20:52;;;;;;;6.75;3.85;;;26.80;72.00;;;;;;4993387;28;20026;-65
2022/05/04 13:23:18;;;;;;;9.95;3.80;;;27.30;71.80;;;;;;4993405;28;20054;-66